sensor_id;sensor_type;location;lat;lon;timestamp;temperature;humidity
45803;DHT22;31504;51.716;9.184;2022-09-01T00:01:12;22.10;49.60
45803;DHT22;31504;51.716;9.184;2022-09-01T00:04:20;22.00;49.40
45803;DHT22;31504;51.716;9.184;2022-09-01T00:07:21;22.10;49.50
45803;DHT22;31504;51.716;9.184;2022-09-01T00:10:21;22.10;49.50
45803;DHT22;31504;51.716;9.184;2022-09-01T00:13:22;22.10;49.40
45803;DHT22;31504;51.716;9.184;2022-09-01T00:16:23;22.10;49.40
45803;DHT22;31504;51.716;9.184;2022-09-01T00:19:25;22.10;49.40
45803;DHT22;31504;51.716;9.184;2022-09-01T00:22:26;22.10;49.40
45803;DHT22;31504;51.716;9.184;2022-09-01T00:25:27;22.10;49.40
45803;DHT22;31504;51.716;9.184;2022-09-01T00:28:28;22.10;50.00
45803;DHT22;31504;51.716;9.184;2022-09-01T00:31:29;22.10;49.30
45803;DHT22;31504;51.716;9.184;2022-09-01T00:34:30;22.10;49.30
45803;DHT22;31504;51.716;9.184;2022-09-01T00:37:30;22.10;49.40
45803;DHT22;31504;51.716;9.184;2022-09-01T00:40:31;22.10;49.30
45803;DHT22;31504;51.716;9.184;2022-09-01T00:46:42;22.10;49.30
45803;DHT22;31504;51.716;9.184;2022-09-01T00:49:48;22.10;49.20
45803;DHT22;31504;51.716;9.184;2022-09-01T00:52:52;22.10;49.20
45803;DHT22;31504;51.716;9.184;2022-09-01T00:55:54;22.10;49.20
45803;DHT22;31504;51.716;9.184;2022-09-01T00:58:54;22.10;49.20
45803;DHT22;31504;51.716;9.184;2022-09-01T01:01:55;22.10;49.20
45803;DHT22;31504;51.716;9.184;2022-09-01T01:04:57;22.10;49.20
45803;DHT22;31504;51.716;9.184;2022-09-01T01:08:01;22.10;49.20
45803;DHT22;31504;51.716;9.184;2022-09-01T01:14:07;22.10;49.10
45803;DHT22;31504;51.716;9.184;2022-09-01T01:17:19;22.10;49.10
45803;DHT22;31504;51.716;9.184;2022-09-01T01:20:25;22.10;49.00
45803;DHT22;31504;51.716;9.184;2022-09-01T01:24:04;22.10;49.00
45803;DHT22;31504;51.716;9.184;2022-09-01T01:27:06;22.10;49.00
45803;DHT22;31504;51.716;9.184;2022-09-01T01:30:07;22.10;49.00
45803;DHT22;31504;51.716;9.184;2022-09-01T01:33:10;22.10;49.00
45803;DHT22;31504;51.716;9.184;2022-09-01T01:36:14;22.10;49.00
45803;DHT22;31504;51.716;9.184;2022-09-01T01:39:25;22.10;48.90
45803;DHT22;31504;51.716;9.184;2022-09-01T01:42:26;22.10;48.90
45803;DHT22;31504;51.716;9.184;2022-09-01T01:45:28;22.10;48.90
45803;DHT22;31504;51.716;9.184;2022-09-01T01:48:29;22.10;48.90
45803;DHT22;31504;51.716;9.184;2022-09-01T01:51:33;22.10;48.90
45803;DHT22;31504;51.716;9.184;2022-09-01T01:54:34;22.10;48.90
45803;DHT22;31504;51.716;9.184;2022-09-01T01:57:35;22.10;48.80
45803;DHT22;31504;51.716;9.184;2022-09-01T02:00:37;22.10;48.80
45803;DHT22;31504;51.716;9.184;2022-09-01T02:03:38;22.10;48.80
45803;DHT22;31504;51.716;9.184;2022-09-01T02:06:39;22.10;49.30
45803;DHT22;31504;51.716;9.184;2022-09-01T02:09:44;22.00;48.70
45803;DHT22;31504;51.716;9.184;2022-09-01T02:12:47;22.10;48.70
45803;DHT22;31504;51.716;9.184;2022-09-01T02:15:53;22.00;48.70
45803;DHT22;31504;51.716;9.184;2022-09-01T02:18:55;22.10;48.70
45803;DHT22;31504;51.716;9.184;2022-09-01T02:21:55;22.10;48.70
45803;DHT22;31504;51.716;9.184;2022-09-01T02:24:59;22.10;48.60
45803;DHT22;31504;51.716;9.184;2022-09-01T02:28:00;22.10;48.60
45803;DHT22;31504;51.716;9.184;2022-09-01T02:31:04;22.10;48.60
45803;DHT22;31504;51.716;9.184;2022-09-01T02:34:06;22.00;48.50
45803;DHT22;31504;51.716;9.184;2022-09-01T02:37:13;22.10;48.60
45803;DHT22;31504;51.716;9.184;2022-09-01T02:40:14;22.10;48.40
45803;DHT22;31504;51.716;9.184;2022-09-01T02:43:15;22.00;48.40
45803;DHT22;31504;51.716;9.184;2022-09-01T02:46:20;22.10;48.50
45803;DHT22;31504;51.716;9.184;2022-09-01T02:49:23;22.10;48.40
45803;DHT22;31504;51.716;9.184;2022-09-01T02:52:29;22.00;48.40
45803;DHT22;31504;51.716;9.184;2022-09-01T02:55:38;22.00;48.40
45803;DHT22;31504;51.716;9.184;2022-09-01T02:58:41;22.00;48.50
45803;DHT22;31504;51.716;9.184;2022-09-01T03:01:48;22.00;48.40
45803;DHT22;31504;51.716;9.184;2022-09-01T03:04:49;22.00;47.80
45803;DHT22;31504;51.716;9.184;2022-09-01T03:08:00;21.90;47.40
45803;DHT22;31504;51.716;9.184;2022-09-01T03:11:01;21.90;47.20
45803;DHT22;31504;51.716;9.184;2022-09-01T03:14:02;21.90;47.00
45803;DHT22;31504;51.716;9.184;2022-09-01T03:17:03;21.90;46.90
45803;DHT22;31504;51.716;9.184;2022-09-01T03:20:04;21.90;46.80
45803;DHT22;31504;51.716;9.184;2022-09-01T03:23:08;21.90;46.70
45803;DHT22;31504;51.716;9.184;2022-09-01T03:26:09;21.90;46.60
45803;DHT22;31504;51.716;9.184;2022-09-01T03:29:10;21.80;46.40
45803;DHT22;31504;51.716;9.184;2022-09-01T03:32:11;21.90;46.40
45803;DHT22;31504;51.716;9.184;2022-09-01T03:35:11;21.90;46.60
45803;DHT22;31504;51.716;9.184;2022-09-01T03:38:13;21.80;46.80
45803;DHT22;31504;51.716;9.184;2022-09-01T03:41:25;21.90;46.80
45803;DHT22;31504;51.716;9.184;2022-09-01T03:44:27;21.90;47.00
45803;DHT22;31504;51.716;9.184;2022-09-01T03:47:28;21.90;47.00
45803;DHT22;31504;51.716;9.184;2022-09-01T03:50:29;21.90;47.10
45803;DHT22;31504;51.716;9.184;2022-09-01T03:53:32;21.90;47.10
45803;DHT22;31504;51.716;9.184;2022-09-01T03:56:33;21.90;47.20
45803;DHT22;31504;51.716;9.184;2022-09-01T03:59:34;21.90;47.80
45803;DHT22;31504;51.716;9.184;2022-09-01T04:02:35;21.90;47.30
45803;DHT22;31504;51.716;9.184;2022-09-01T04:05:36;21.90;47.30
45803;DHT22;31504;51.716;9.184;2022-09-01T04:08:37;21.90;47.30
45803;DHT22;31504;51.716;9.184;2022-09-01T04:11:38;21.90;47.20
45803;DHT22;31504;51.716;9.184;2022-09-01T04:14:41;21.90;47.30
45803;DHT22;31504;51.716;9.184;2022-09-01T04:17:45;21.90;47.30
45803;DHT22;31504;51.716;9.184;2022-09-01T04:21:09;21.90;47.20
45803;DHT22;31504;51.716;9.184;2022-09-01T04:24:10;21.90;47.20
45803;DHT22;31504;51.716;9.184;2022-09-01T04:27:14;21.90;47.20
45803;DHT22;31504;51.716;9.184;2022-09-01T04:30:15;21.90;47.10
45803;DHT22;31504;51.716;9.184;2022-09-01T04:33:16;21.90;47.10
45803;DHT22;31504;51.716;9.184;2022-09-01T04:36:20;21.90;47.20
45803;DHT22;31504;51.716;9.184;2022-09-01T04:39:22;21.90;47.10
45803;DHT22;31504;51.716;9.184;2022-09-01T04:42:25;21.90;47.10
45803;DHT22;31504;51.716;9.184;2022-09-01T04:45:28;21.90;47.20
45803;DHT22;31504;51.716;9.184;2022-09-01T04:48:29;21.90;47.10
45803;DHT22;31504;51.716;9.184;2022-09-01T04:51:31;21.90;47.00
45803;DHT22;31504;51.716;9.184;2022-09-01T04:54:32;21.90;47.00
45803;DHT22;31504;51.716;9.184;2022-09-01T04:57:35;21.90;47.10
45803;DHT22;31504;51.716;9.184;2022-09-01T05:00:35;21.90;47.00
45803;DHT22;31504;51.716;9.184;2022-09-01T05:03:36;21.90;47.00
45803;DHT22;31504;51.716;9.184;2022-09-01T05:06:39;21.90;47.00
45803;DHT22;31504;51.716;9.184;2022-09-01T05:09:41;21.90;47.00
45803;DHT22;31504;51.716;9.184;2022-09-01T05:12:41;21.90;47.00
45803;DHT22;31504;51.716;9.184;2022-09-01T05:15:45;21.90;46.90
45803;DHT22;31504;51.716;9.184;2022-09-01T05:18:48;21.90;46.90
45803;DHT22;31504;51.716;9.184;2022-09-01T05:21:49;21.90;46.80
45803;DHT22;31504;51.716;9.184;2022-09-01T05:24:50;21.90;46.80
45803;DHT22;31504;51.716;9.184;2022-09-01T05:27:50;21.90;46.90
45803;DHT22;31504;51.716;9.184;2022-09-01T05:30:52;21.90;46.70
45803;DHT22;31504;51.716;9.184;2022-09-01T05:33:53;21.90;46.70
45803;DHT22;31504;51.716;9.184;2022-09-01T05:36:58;21.90;46.70
45803;DHT22;31504;51.716;9.184;2022-09-01T05:40:00;21.90;46.80
45803;DHT22;31504;51.716;9.184;2022-09-01T05:43:01;21.80;46.80
45803;DHT22;31504;51.716;9.184;2022-09-01T05:46:06;21.90;46.70
45803;DHT22;31504;51.716;9.184;2022-09-01T05:49:08;21.90;46.70
45803;DHT22;31504;51.716;9.184;2022-09-01T05:52:13;21.90;46.70
45803;DHT22;31504;51.716;9.184;2022-09-01T05:55:13;21.80;46.50
45803;DHT22;31504;51.716;9.184;2022-09-01T05:58:15;21.90;46.60
45803;DHT22;31504;51.716;9.184;2022-09-01T06:01:21;21.90;46.70
45803;DHT22;31504;51.716;9.184;2022-09-01T06:04:24;21.90;46.60
45803;DHT22;31504;51.716;9.184;2022-09-01T06:07:25;21.90;47.20
45803;DHT22;31504;51.716;9.184;2022-09-01T06:10:27;21.80;46.60
45803;DHT22;31504;51.716;9.184;2022-09-01T06:13:29;21.80;46.70
45803;DHT22;31504;51.716;9.184;2022-09-01T06:16:30;21.80;46.60
45803;DHT22;31504;51.716;9.184;2022-09-01T06:19:31;21.90;46.80
45803;DHT22;31504;51.716;9.184;2022-09-01T06:22:33;21.80;46.70
45803;DHT22;31504;51.716;9.184;2022-09-01T06:25:37;21.80;46.70
45803;DHT22;31504;51.716;9.184;2022-09-01T06:28:38;21.90;46.80
45803;DHT22;31504;51.716;9.184;2022-09-01T06:31:41;21.90;46.70
45803;DHT22;31504;51.716;9.184;2022-09-01T06:34:43;21.90;46.80
45803;DHT22;31504;51.716;9.184;2022-09-01T06:37:44;21.90;46.80
45803;DHT22;31504;51.716;9.184;2022-09-01T06:40:45;21.90;46.80
45803;DHT22;31504;51.716;9.184;2022-09-01T06:43:50;21.90;46.80
45803;DHT22;31504;51.716;9.184;2022-09-01T06:46:52;21.80;46.80
45803;DHT22;31504;51.716;9.184;2022-09-01T06:49:54;21.90;46.90
45803;DHT22;31504;51.716;9.184;2022-09-01T06:52:58;21.90;47.00
45803;DHT22;31504;51.716;9.184;2022-09-01T06:56:11;21.90;46.90
45803;DHT22;31504;51.716;9.184;2022-09-01T06:59:12;21.90;47.00
45803;DHT22;31504;51.716;9.184;2022-09-01T07:02:14;21.90;47.00
45803;DHT22;31504;51.716;9.184;2022-09-01T07:05:15;21.90;47.10
45803;DHT22;31504;51.716;9.184;2022-09-01T07:08:20;21.80;47.10
45803;DHT22;31504;51.716;9.184;2022-09-01T07:11:25;21.80;47.20
45803;DHT22;31504;51.716;9.184;2022-09-01T07:14:27;21.80;47.20
45803;DHT22;31504;51.716;9.184;2022-09-01T07:17:28;21.80;47.30
45803;DHT22;31504;51.716;9.184;2022-09-01T07:20:29;21.80;47.40
45803;DHT22;31504;51.716;9.184;2022-09-01T07:23:34;21.90;47.50
45803;DHT22;31504;51.716;9.184;2022-09-01T07:26:36;21.90;47.50
45803;DHT22;31504;51.716;9.184;2022-09-01T07:29:37;21.90;47.60
45803;DHT22;31504;51.716;9.184;2022-09-01T07:32:38;21.90;47.60
45803;DHT22;31504;51.716;9.184;2022-09-01T07:35:42;21.80;47.60
45803;DHT22;31504;51.716;9.184;2022-09-01T07:38:44;21.90;47.80
45803;DHT22;31504;51.716;9.184;2022-09-01T07:41:44;21.90;47.80
45803;DHT22;31504;51.716;9.184;2022-09-01T07:44:45;21.90;47.90
45803;DHT22;31504;51.716;9.184;2022-09-01T07:47:46;21.90;47.90
45803;DHT22;31504;51.716;9.184;2022-09-01T07:50:49;21.90;48.00
45803;DHT22;31504;51.716;9.184;2022-09-01T07:53:52;21.90;48.00
45803;DHT22;31504;51.716;9.184;2022-09-01T07:56:53;21.90;48.20
45803;DHT22;31504;51.716;9.184;2022-09-01T07:59:54;21.90;48.10
45803;DHT22;31504;51.716;9.184;2022-09-01T08:02:56;21.90;48.20
45803;DHT22;31504;51.716;9.184;2022-09-01T08:06:06;21.90;48.20
45803;DHT22;31504;51.716;9.184;2022-09-01T08:09:07;21.90;48.30
45803;DHT22;31504;51.716;9.184;2022-09-01T08:12:10;21.90;48.30
45803;DHT22;31504;51.716;9.184;2022-09-01T08:15:11;21.80;48.20
45803;DHT22;31504;51.716;9.184;2022-09-01T08:18:12;21.80;48.20
45803;DHT22;31504;51.716;9.184;2022-09-01T08:21:14;21.80;48.20
45803;DHT22;31504;51.716;9.184;2022-09-01T08:24:15;21.80;48.20
45803;DHT22;31504;51.716;9.184;2022-09-01T08:27:16;21.80;48.30
45803;DHT22;31504;51.716;9.184;2022-09-01T08:30:17;21.80;48.50
45803;DHT22;31504;51.716;9.184;2022-09-01T08:33:18;21.80;48.60
45803;DHT22;31504;51.716;9.184;2022-09-01T08:36:19;21.80;48.60
45803;DHT22;31504;51.716;9.184;2022-09-01T08:39:20;21.80;48.60
45803;DHT22;31504;51.716;9.184;2022-09-01T08:45:37;21.80;48.80
45803;DHT22;31504;51.716;9.184;2022-09-01T08:48:54;21.80;49.00
45803;DHT22;31504;51.716;9.184;2022-09-01T08:52:14;21.80;49.20
45803;DHT22;31504;51.716;9.184;2022-09-01T08:55:39;21.80;49.20
45803;DHT22;31504;51.716;9.184;2022-09-01T08:58:41;21.80;49.30
45803;DHT22;31504;51.716;9.184;2022-09-01T09:01:57;21.80;49.40
45803;DHT22;31504;51.716;9.184;2022-09-01T09:21:42;21.80;49.40
45803;DHT22;31504;51.716;9.184;2022-09-01T09:25:14;21.80;49.60
45803;DHT22;31504;51.716;9.184;2022-09-01T09:28:15;21.90;49.50
45803;DHT22;31504;51.716;9.184;2022-09-01T09:31:37;21.90;49.50
45803;DHT22;31504;51.716;9.184;2022-09-01T09:34:42;21.90;49.30
45803;DHT22;31504;51.716;9.184;2022-09-01T09:37:43;21.90;49.40
45803;DHT22;31504;51.716;9.184;2022-09-01T09:41:19;21.90;49.40
45803;DHT22;31504;51.716;9.184;2022-09-01T09:44:21;21.90;49.20
45803;DHT22;31504;51.716;9.184;2022-09-01T09:47:39;21.80;49.50
45803;DHT22;31504;51.716;9.184;2022-09-01T09:50:41;21.80;48.80
45803;DHT22;31504;51.716;9.184;2022-09-01T09:53:43;21.90;48.70
45803;DHT22;31504;51.716;9.184;2022-09-01T09:56:44;21.90;48.50
45803;DHT22;31504;51.716;9.184;2022-09-01T10:05:56;21.80;47.90
45803;DHT22;31504;51.716;9.184;2022-09-01T10:08:58;21.90;47.80
45803;DHT22;31504;51.716;9.184;2022-09-01T10:12:00;21.80;47.90
45803;DHT22;31504;51.716;9.184;2022-09-01T10:15:08;21.80;47.80
45803;DHT22;31504;51.716;9.184;2022-09-01T10:18:14;21.90;47.70
45803;DHT22;31504;51.716;9.184;2022-09-01T10:21:22;21.80;47.30
45803;DHT22;31504;51.716;9.184;2022-09-01T10:24:32;21.80;46.90
45803;DHT22;31504;51.716;9.184;2022-09-01T10:27:38;21.80;46.70
45803;DHT22;31504;51.716;9.184;2022-09-01T10:30:42;21.80;46.50
45803;DHT22;31504;51.716;9.184;2022-09-01T10:33:43;21.80;46.50
45803;DHT22;31504;51.716;9.184;2022-09-01T10:36:45;21.80;46.40
45803;DHT22;31504;51.716;9.184;2022-09-01T10:40:15;21.80;46.50
45803;DHT22;31504;51.716;9.184;2022-09-01T10:43:33;21.80;46.40
45803;DHT22;31504;51.716;9.184;2022-09-01T10:56:04;21.90;46.30
45803;DHT22;31504;51.716;9.184;2022-09-01T11:02:22;21.90;46.20
45803;DHT22;31504;51.716;9.184;2022-09-01T11:05:22;21.90;46.20
45803;DHT22;31504;51.716;9.184;2022-09-01T11:11:40;21.90;46.00
45803;DHT22;31504;51.716;9.184;2022-09-01T11:14:56;21.80;46.00
45803;DHT22;31504;51.716;9.184;2022-09-01T11:17:58;21.90;46.00
45803;DHT22;31504;51.716;9.184;2022-09-01T11:21:24;21.90;45.70
45803;DHT22;31504;51.716;9.184;2022-09-01T11:36:59;21.90;45.90
45803;DHT22;31504;51.716;9.184;2022-09-01T11:40:03;21.90;46.00
45803;DHT22;31504;51.716;9.184;2022-09-01T11:43:10;21.90;46.00
45803;DHT22;31504;51.716;9.184;2022-09-01T11:46:21;21.90;46.00
45803;DHT22;31504;51.716;9.184;2022-09-01T11:49:30;21.90;46.10
45803;DHT22;31504;51.716;9.184;2022-09-01T11:52:34;21.90;46.00
45803;DHT22;31504;51.716;9.184;2022-09-01T11:55:38;21.90;46.00
45803;DHT22;31504;51.716;9.184;2022-09-01T11:58:40;21.90;46.10
45803;DHT22;31504;51.716;9.184;2022-09-01T12:01:41;21.90;46.20
45803;DHT22;31504;51.716;9.184;2022-09-01T12:04:41;21.90;46.00
45803;DHT22;31504;51.716;9.184;2022-09-01T12:07:45;21.90;45.90
45803;DHT22;31504;51.716;9.184;2022-09-01T12:10:46;21.90;45.80
45803;DHT22;31504;51.716;9.184;2022-09-01T12:13:59;21.90;46.30
45803;DHT22;31504;51.716;9.184;2022-09-01T12:17:03;21.90;45.90
45803;DHT22;31504;51.716;9.184;2022-09-01T12:20:21;21.90;46.00
45803;DHT22;31504;51.716;9.184;2022-09-01T12:26:28;21.90;46.10
45803;DHT22;31504;51.716;9.184;2022-09-01T12:29:30;21.90;46.40
45803;DHT22;31504;51.716;9.184;2022-09-01T12:32:32;21.90;46.50
45803;DHT22;31504;51.716;9.184;2022-09-01T12:35:34;21.90;46.60
45803;DHT22;31504;51.716;9.184;2022-09-01T12:38:34;21.90;46.50
45803;DHT22;31504;51.716;9.184;2022-09-01T12:41:37;21.90;46.60
45803;DHT22;31504;51.716;9.184;2022-09-01T12:50:46;21.90;46.50
45803;DHT22;31504;51.716;9.184;2022-09-01T12:53:59;21.90;46.40
45803;DHT22;31504;51.716;9.184;2022-09-01T12:56:59;21.90;46.40
45803;DHT22;31504;51.716;9.184;2022-09-01T13:03:14;21.90;46.40
45803;DHT22;31504;51.716;9.184;2022-09-01T13:06:17;22.00;46.40
45803;DHT22;31504;51.716;9.184;2022-09-01T13:09:18;21.90;45.90
45803;DHT22;31504;51.716;9.184;2022-09-01T13:12:20;21.90;45.80
45803;DHT22;31504;51.716;9.184;2022-09-01T13:15:21;21.90;45.70
45803;DHT22;31504;51.716;9.184;2022-09-01T13:18:26;21.90;45.70
45803;DHT22;31504;51.716;9.184;2022-09-01T13:21:27;21.90;45.70
45803;DHT22;31504;51.716;9.184;2022-09-01T13:24:29;21.90;45.50
45803;DHT22;31504;51.716;9.184;2022-09-01T13:27:29;21.90;45.30
45803;DHT22;31504;51.716;9.184;2022-09-01T13:30:30;21.90;45.40
45803;DHT22;31504;51.716;9.184;2022-09-01T13:33:32;21.90;45.40
45803;DHT22;31504;51.716;9.184;2022-09-01T13:36:34;21.90;45.60
45803;DHT22;31504;51.716;9.184;2022-09-01T13:39:34;21.90;45.70
45803;DHT22;31504;51.716;9.184;2022-09-01T13:42:35;21.90;45.60
45803;DHT22;31504;51.716;9.184;2022-09-01T13:45:35;21.90;45.20
45803;DHT22;31504;51.716;9.184;2022-09-01T13:48:40;21.90;45.10
45803;DHT22;31504;51.716;9.184;2022-09-01T13:51:40;21.90;45.20
45803;DHT22;31504;51.716;9.184;2022-09-01T13:54:41;21.90;45.50
45803;DHT22;31504;51.716;9.184;2022-09-01T13:57:43;21.90;45.20
45803;DHT22;31504;51.716;9.184;2022-09-01T14:00:45;21.90;44.90
45803;DHT22;31504;51.716;9.184;2022-09-01T14:03:46;21.90;44.90
45803;DHT22;31504;51.716;9.184;2022-09-01T14:06:48;21.90;45.00
45803;DHT22;31504;51.716;9.184;2022-09-01T14:09:48;21.90;45.00
45803;DHT22;31504;51.716;9.184;2022-09-01T14:12:49;21.90;45.20
45803;DHT22;31504;51.716;9.184;2022-09-01T14:15:51;21.90;45.40
45803;DHT22;31504;51.716;9.184;2022-09-01T14:18:52;21.90;45.50
45803;DHT22;31504;51.716;9.184;2022-09-01T14:21:53;22.00;45.40
45803;DHT22;31504;51.716;9.184;2022-09-01T14:24:54;22.00;45.50
45803;DHT22;31504;51.716;9.184;2022-09-01T14:27:54;22.00;45.60
45803;DHT22;31504;51.716;9.184;2022-09-01T14:30:56;22.00;45.50
45803;DHT22;31504;51.716;9.184;2022-09-01T14:33:57;22.00;45.40
45803;DHT22;31504;51.716;9.184;2022-09-01T14:36:57;22.00;45.30
45803;DHT22;31504;51.716;9.184;2022-09-01T14:39:58;22.00;45.90
45803;DHT22;31504;51.716;9.184;2022-09-01T14:42:59;22.00;46.00
45803;DHT22;31504;51.716;9.184;2022-09-01T14:46:04;22.00;45.60
45803;DHT22;31504;51.716;9.184;2022-09-01T14:49:06;22.00;45.40
45803;DHT22;31504;51.716;9.184;2022-09-01T14:52:07;22.00;45.10
45803;DHT22;31504;51.716;9.184;2022-09-01T14:55:09;22.00;45.10
45803;DHT22;31504;51.716;9.184;2022-09-01T14:58:10;22.00;44.70
45803;DHT22;31504;51.716;9.184;2022-09-01T15:01:11;22.00;44.50
45803;DHT22;31504;51.716;9.184;2022-09-01T15:04:11;22.00;44.80
45803;DHT22;31504;51.716;9.184;2022-09-01T15:07:12;22.00;44.20
45803;DHT22;31504;51.716;9.184;2022-09-01T15:10:16;22.00;43.90
45803;DHT22;31504;51.716;9.184;2022-09-01T15:13:17;22.00;43.80
45803;DHT22;31504;51.716;9.184;2022-09-01T15:16:22;22.00;43.80
45803;DHT22;31504;51.716;9.184;2022-09-01T15:19:23;22.00;44.10
45803;DHT22;31504;51.716;9.184;2022-09-01T15:22:24;22.00;44.00
45803;DHT22;31504;51.716;9.184;2022-09-01T15:25:24;22.00;44.20
45803;DHT22;31504;51.716;9.184;2022-09-01T15:28:25;22.00;43.80
45803;DHT22;31504;51.716;9.184;2022-09-01T15:31:27;22.00;43.80
45803;DHT22;31504;51.716;9.184;2022-09-01T15:34:30;22.00;43.70
45803;DHT22;31504;51.716;9.184;2022-09-01T15:37:31;22.00;44.10
45803;DHT22;31504;51.716;9.184;2022-09-01T15:40:32;22.00;43.60
45803;DHT22;31504;51.716;9.184;2022-09-01T15:43:34;22.00;43.60
45803;DHT22;31504;51.716;9.184;2022-09-01T15:46:36;22.00;43.50
45803;DHT22;31504;51.716;9.184;2022-09-01T15:49:38;22.00;43.50
45803;DHT22;31504;51.716;9.184;2022-09-01T15:52:58;22.00;43.70
45803;DHT22;31504;51.716;9.184;2022-09-01T15:56:00;22.00;43.60
45803;DHT22;31504;51.716;9.184;2022-09-01T15:59:02;22.00;43.60
45803;DHT22;31504;51.716;9.184;2022-09-01T16:02:03;22.00;43.70
45803;DHT22;31504;51.716;9.184;2022-09-01T16:05:06;22.00;44.40
45803;DHT22;31504;51.716;9.184;2022-09-01T16:08:08;22.00;43.70
45803;DHT22;31504;51.716;9.184;2022-09-01T16:11:09;22.00;43.70
45803;DHT22;31504;51.716;9.184;2022-09-01T16:14:11;22.00;44.20
45803;DHT22;31504;51.716;9.184;2022-09-01T16:17:21;22.00;43.40
45803;DHT22;31504;51.716;9.184;2022-09-01T16:20:33;22.00;43.70
45803;DHT22;31504;51.716;9.184;2022-09-01T16:23:44;22.00;43.50
45803;DHT22;31504;51.716;9.184;2022-09-01T16:26:46;22.00;43.40
45803;DHT22;31504;51.716;9.184;2022-09-01T16:29:54;22.00;43.70
45803;DHT22;31504;51.716;9.184;2022-09-01T16:33:02;22.00;43.50
45803;DHT22;31504;51.716;9.184;2022-09-01T16:36:39;22.00;43.30
45803;DHT22;31504;51.716;9.184;2022-09-01T16:39:45;22.00;44.20
45803;DHT22;31504;51.716;9.184;2022-09-01T16:42:51;22.00;43.50
45803;DHT22;31504;51.716;9.184;2022-09-01T16:52:26;22.00;43.70
45803;DHT22;31504;51.716;9.184;2022-09-01T17:05:26;22.00;43.50
45803;DHT22;31504;51.716;9.184;2022-09-01T17:08:32;22.00;43.30
45803;DHT22;31504;51.716;9.184;2022-09-01T17:15:09;22.00;43.30
45803;DHT22;31504;51.716;9.184;2022-09-01T17:18:13;22.00;43.20
45803;DHT22;31504;51.716;9.184;2022-09-01T17:21:22;22.00;43.20
45803;DHT22;31504;51.716;9.184;2022-09-01T17:24:38;22.00;43.10
45803;DHT22;31504;51.716;9.184;2022-09-01T17:28:00;22.00;43.00
45803;DHT22;31504;51.716;9.184;2022-09-01T17:31:12;22.00;42.90
45803;DHT22;31504;51.716;9.184;2022-09-01T17:34:24;22.00;42.80
45803;DHT22;31504;51.716;9.184;2022-09-01T17:37:49;22.00;42.90
45803;DHT22;31504;51.716;9.184;2022-09-01T17:41:13;22.00;42.80
45803;DHT22;31504;51.716;9.184;2022-09-01T17:51:05;22.00;43.20
45803;DHT22;31504;51.716;9.184;2022-09-01T17:57:59;22.00;42.80
45803;DHT22;31504;51.716;9.184;2022-09-01T18:01:09;21.90;43.00
45803;DHT22;31504;51.716;9.184;2022-09-01T18:07:43;21.90;43.20
45803;DHT22;31504;51.716;9.184;2022-09-01T18:11:05;22.00;43.10
45803;DHT22;31504;51.716;9.184;2022-09-01T18:14:14;21.90;42.80
45803;DHT22;31504;51.716;9.184;2022-09-01T18:17:27;21.90;43.00
45803;DHT22;31504;51.716;9.184;2022-09-01T18:20:32;21.90;42.90
45803;DHT22;31504;51.716;9.184;2022-09-01T18:23:40;21.90;43.60
45803;DHT22;31504;51.716;9.184;2022-09-01T18:26:45;22.00;43.00
45803;DHT22;31504;51.716;9.184;2022-09-01T18:29:46;21.90;43.10
45803;DHT22;31504;51.716;9.184;2022-09-01T18:39:04;21.90;42.70
45803;DHT22;31504;51.716;9.184;2022-09-01T18:45:30;21.90;42.70
45803;DHT22;31504;51.716;9.184;2022-09-01T18:53:01;21.90;42.70
45803;DHT22;31504;51.716;9.184;2022-09-01T18:59:34;21.80;42.30
45803;DHT22;31504;51.716;9.184;2022-09-01T19:06:14;21.80;42.40
45803;DHT22;31504;51.716;9.184;2022-09-01T19:13:01;21.90;42.40
45803;DHT22;31504;51.716;9.184;2022-09-01T19:16:46;21.80;42.10
45803;DHT22;31504;51.716;9.184;2022-09-01T19:22:59;21.80;42.30
45803;DHT22;31504;51.716;9.184;2022-09-01T19:26:05;21.80;42.40
45803;DHT22;31504;51.716;9.184;2022-09-01T19:29:11;21.80;42.50
45803;DHT22;31504;51.716;9.184;2022-09-01T19:32:14;21.90;43.10
45803;DHT22;31504;51.716;9.184;2022-09-01T19:35:18;21.90;43.50
45803;DHT22;31504;51.716;9.184;2022-09-01T19:38:22;21.90;43.70
45803;DHT22;31504;51.716;9.184;2022-09-01T19:41:34;21.90;43.80
45803;DHT22;31504;51.716;9.184;2022-09-01T19:51:32;22.00;44.10
45803;DHT22;31504;51.716;9.184;2022-09-01T19:54:49;21.90;44.20
45803;DHT22;31504;51.716;9.184;2022-09-01T19:58:03;22.00;44.30
45803;DHT22;31504;51.716;9.184;2022-09-01T20:01:12;22.00;44.40
45803;DHT22;31504;51.716;9.184;2022-09-01T20:04:45;21.90;44.30
45803;DHT22;31504;51.716;9.184;2022-09-01T20:11:25;22.00;44.80
45803;DHT22;31504;51.716;9.184;2022-09-01T20:17:42;21.90;45.20
45803;DHT22;31504;51.716;9.184;2022-09-01T20:20:47;22.00;45.30
45803;DHT22;31504;51.716;9.184;2022-09-01T20:24:04;21.90;45.30
45803;DHT22;31504;51.716;9.184;2022-09-01T20:27:22;22.00;45.40
45803;DHT22;31504;51.716;9.184;2022-09-01T20:30:30;22.00;45.50
45803;DHT22;31504;51.716;9.184;2022-09-01T20:33:42;22.00;45.60
45803;DHT22;31504;51.716;9.184;2022-09-01T20:37:09;22.00;46.30
45803;DHT22;31504;51.716;9.184;2022-09-01T20:40:25;22.00;45.70
45803;DHT22;31504;51.716;9.184;2022-09-01T20:43:29;22.00;45.70
45803;DHT22;31504;51.716;9.184;2022-09-01T20:46:31;22.00;45.80
45803;DHT22;31504;51.716;9.184;2022-09-01T20:49:33;22.00;45.80
45803;DHT22;31504;51.716;9.184;2022-09-01T20:52:51;22.00;45.90
45803;DHT22;31504;51.716;9.184;2022-09-01T20:55:58;22.00;45.90
45803;DHT22;31504;51.716;9.184;2022-09-01T20:59:12;22.00;45.90
45803;DHT22;31504;51.716;9.184;2022-09-01T21:02:31;22.00;46.00
45803;DHT22;31504;51.716;9.184;2022-09-01T21:05:45;22.00;46.00
45803;DHT22;31504;51.716;9.184;2022-09-01T21:15:49;22.00;46.20
45803;DHT22;31504;51.716;9.184;2022-09-01T21:19:18;22.00;46.10
45803;DHT22;31504;51.716;9.184;2022-09-01T21:22:17;22.00;46.10
45803;DHT22;31504;51.716;9.184;2022-09-01T21:25:18;22.00;46.10
45803;DHT22;31504;51.716;9.184;2022-09-01T21:28:20;22.00;46.20
45803;DHT22;31504;51.716;9.184;2022-09-01T21:31:22;22.00;46.10
45803;DHT22;31504;51.716;9.184;2022-09-01T21:34:24;22.00;46.10
45803;DHT22;31504;51.716;9.184;2022-09-01T21:37:26;22.00;46.20
45803;DHT22;31504;51.716;9.184;2022-09-01T21:40:27;22.00;46.10
45803;DHT22;31504;51.716;9.184;2022-09-01T21:43:32;22.00;46.20
45803;DHT22;31504;51.716;9.184;2022-09-01T21:46:33;22.00;46.70
45803;DHT22;31504;51.716;9.184;2022-09-01T21:49:33;22.00;46.10
45803;DHT22;31504;51.716;9.184;2022-09-01T21:52:34;22.00;46.20
45803;DHT22;31504;51.716;9.184;2022-09-01T21:55:35;22.00;46.10
45803;DHT22;31504;51.716;9.184;2022-09-01T21:58:36;22.00;46.20
45803;DHT22;31504;51.716;9.184;2022-09-01T22:01:37;22.00;46.20